createdAt,value
2019-02-06T00:02:00.837Z,-1.36
2019-02-06T00:04:32.874Z,-1.43
2019-02-06T00:07:03.743Z,-1.43
2019-02-06T00:09:34.729Z,-1.47
2019-02-06T00:12:05.556Z,-1.50
2019-02-06T00:14:36.801Z,-1.52
2019-02-06T00:17:08.102Z,-1.58
2019-02-06T00:19:39.226Z,-1.58
2019-02-06T00:22:11.122Z,-1.58
2019-02-06T00:24:42.026Z,-1.51
2019-02-06T00:27:12.925Z,-1.51
2019-02-06T00:29:44.197Z,-1.52
2019-02-06T00:32:15.262Z,-1.53
2019-02-06T00:34:46.474Z,-1.54
2019-02-06T00:37:17.351Z,-1.57
2019-02-06T00:39:49.365Z,-1.60
2019-02-06T00:42:20.457Z,-1.59
2019-02-06T00:44:51.469Z,-1.58
2019-02-06T00:47:22.250Z,-1.54
2019-02-06T00:49:53.309Z,-1.54
2019-02-06T00:52:24.116Z,-1.52
2019-02-06T00:54:55.209Z,-1.56
2019-02-06T00:57:26.111Z,-1.66
2019-02-06T00:59:58.510Z,-1.70
2019-02-06T01:02:29.601Z,-1.70
2019-02-06T01:05:00.602Z,-1.72
2019-02-06T01:07:31.408Z,-1.72
2019-02-06T01:10:03.276Z,-1.74
2019-02-06T01:12:34.106Z,-1.77
2019-02-06T01:15:05.466Z,-1.78
2019-02-06T01:17:36.526Z,-1.87
2019-02-06T01:20:08.186Z,-1.89
2019-02-06T01:22:39.271Z,-2.05
2019-02-06T01:25:11.894Z,-1.98
2019-02-06T01:27:42.788Z,-1.96
2019-02-06T01:30:17.280Z,-1.96
2019-02-06T01:32:48.150Z,-1.95
2019-02-06T01:35:19.469Z,-1.93
2019-02-06T01:37:50.425Z,-1.94
2019-02-06T01:40:21.510Z,-2.08
2019-02-06T01:42:52.413Z,-2.11
2019-02-06T01:45:23.470Z,-2.21
2019-02-06T01:47:54.301Z,-2.18
2019-02-06T01:50:25.311Z,-2.16
2019-02-06T01:52:56.081Z,-2.13
2019-02-06T01:55:27.253Z,-2.17
2019-02-06T01:57:58.183Z,-2.15
2019-02-06T02:00:29.387Z,-2.27
2019-02-06T02:03:00.452Z,-2.25
2019-02-06T02:05:31.504Z,-2.20
2019-02-06T02:08:02.406Z,-2.16
2019-02-06T02:10:33.592Z,-2.20
2019-02-06T02:13:05.096Z,-2.20
2019-02-06T02:15:36.305Z,-2.18
2019-02-06T02:18:07.618Z,-2.20
2019-02-06T02:20:38.509Z,-2.26
2019-02-06T02:23:09.476Z,-2.24
2019-02-06T02:25:40.519Z,-2.19
2019-02-06T02:28:11.468Z,-2.31
2019-02-06T02:30:48.849Z,-2.41
2019-02-06T02:33:19.793Z,-2.44
2019-02-06T02:35:51.889Z,-2.44
2019-02-06T02:38:22.797Z,-2.41
2019-02-06T02:40:54.189Z,-2.37
2019-02-06T02:43:25.079Z,-2.35
2019-02-06T02:45:56.549Z,-2.34
2019-02-06T02:48:27.368Z,-2.34
2019-02-06T02:50:58.265Z,-2.36
2019-02-06T02:53:29.059Z,-2.46
2019-02-06T02:56:00.139Z,-2.45
2019-02-06T02:58:31.018Z,-2.44
2019-02-06T03:01:20.018Z,-2.38
2019-02-06T03:04:10.171Z,-2.43
2019-02-06T03:06:42.764Z,-2.51
2019-02-06T03:09:14.105Z,-2.59
2019-02-06T03:11:45.110Z,-2.60
2019-02-06T03:14:16.170Z,-2.50
2019-02-06T03:16:47.473Z,-2.59
2019-02-06T03:19:18.269Z,-2.67
2019-02-06T03:21:49.271Z,-2.67
2019-02-06T03:24:20.237Z,-2.82
2019-02-06T03:26:51.156Z,-2.81
2019-02-06T03:29:22.111Z,-2.75
2019-02-06T03:31:53.138Z,-2.82
2019-02-06T03:34:24.007Z,-2.83
2019-02-06T03:36:54.998Z,-2.83
2019-02-06T03:39:25.781Z,-2.89
2019-02-06T03:41:56.759Z,-2.89
2019-02-06T03:44:27.644Z,-2.91
2019-02-06T03:46:58.548Z,-2.91
2019-02-06T03:49:29.421Z,-2.86
2019-02-06T03:52:01.691Z,-2.84
2019-02-06T03:54:32.844Z,-2.90
2019-02-06T03:57:03.735Z,-2.87
2019-02-06T03:59:34.607Z,-2.92
2019-02-06T04:02:05.685Z,-2.87
2019-02-06T04:04:36.602Z,-2.97
2019-02-06T04:07:07.508Z,-2.97
2019-02-06T04:09:38.379Z,-2.97
2019-02-06T04:12:10.071Z,-3.00
2019-02-06T04:14:40.955Z,-3.00
2019-02-06T04:17:11.770Z,-3.07
2019-02-06T04:19:42.640Z,-3.13
2019-02-06T04:22:13.654Z,-3.13
2019-02-06T04:24:44.727Z,-3.14
2019-02-06T04:27:15.907Z,-3.20
2019-02-06T04:29:46.895Z,-3.14
2019-02-06T04:32:18.186Z,-3.14
2019-02-06T04:34:49.185Z,-3.39
2019-02-06T04:37:20.177Z,-3.36
2019-02-06T04:39:50.954Z,-3.26
2019-02-06T04:42:22.671Z,-3.26
2019-02-06T04:44:53.644Z,-3.18
2019-02-06T04:47:24.955Z,-3.14
2019-02-06T04:49:55.759Z,-3.15
2019-02-06T04:52:26.801Z,-3.15
2019-02-06T04:54:57.637Z,-3.13
2019-02-06T04:57:28.688Z,-3.13
2019-02-06T04:59:59.694Z,-3.14
2019-02-06T05:02:30.682Z,-3.14
2019-02-06T05:05:01.470Z,-3.17
2019-02-06T05:07:32.457Z,-3.13
2019-02-06T05:10:03.361Z,-3.13
2019-02-06T05:12:35.589Z,-3.13
2019-02-06T05:15:06.809Z,-3.26
2019-02-06T05:17:37.922Z,-3.29
2019-02-06T05:20:29.449Z,-3.24
2019-02-06T05:23:00.476Z,-3.24
2019-02-06T05:25:31.512Z,-3.15
2019-02-06T05:28:02.345Z,-3.15
2019-02-06T05:30:33.297Z,-3.17
2019-02-06T05:33:04.283Z,-3.17
2019-02-06T05:35:35.366Z,-3.12
2019-02-06T05:38:06.570Z,-3.14
2019-02-06T05:40:37.353Z,-3.13
2019-02-06T05:43:08.338Z,-3.17
2019-02-06T05:45:39.220Z,-3.23
2019-02-06T05:48:09.958Z,-3.23
2019-02-06T05:50:40.794Z,-3.34
2019-02-06T05:53:11.977Z,-3.34
2019-02-06T05:55:42.888Z,-3.35
2019-02-06T05:58:13.935Z,-3.32
2019-02-06T06:00:47.241Z,-3.31
2019-02-06T06:03:18.217Z,-3.34
2019-02-06T06:05:49.079Z,-3.44
2019-02-06T06:08:20.003Z,-3.44
2019-02-06T06:10:51.065Z,-3.47
2019-02-06T06:13:22.087Z,-3.55
2019-02-06T06:15:53.042Z,-3.55
2019-02-06T06:18:24.063Z,-3.57
2019-02-06T06:20:55.142Z,-3.57
2019-02-06T06:23:26.212Z,-3.68
2019-02-06T06:25:57.167Z,-3.60
2019-02-06T06:28:28.204Z,-3.60
2019-02-06T06:30:59.101Z,-3.51
2019-02-06T06:33:30.386Z,-3.48
2019-02-06T06:36:01.267Z,-3.43
2019-02-06T06:38:33.180Z,-3.43
2019-02-06T06:41:04.168Z,-3.45
2019-02-06T06:43:35.165Z,-3.58
2019-02-06T06:46:06.245Z,-3.58
2019-02-06T06:48:37.447Z,-3.59
2019-02-06T06:51:08.229Z,-3.62
2019-02-06T06:53:39.237Z,-3.52
2019-02-06T06:56:10.114Z,-3.60
2019-02-06T06:58:41.101Z,-3.60
2019-02-06T07:01:12.421Z,-3.81
2019-02-06T07:03:43.296Z,-3.81
2019-02-06T07:06:14.165Z,-3.74
2019-02-06T07:08:45.358Z,-3.70
2019-02-06T07:11:16.167Z,-3.70
2019-02-06T07:13:47.258Z,-3.73
2019-02-06T07:16:18.134Z,-3.59
2019-02-06T07:18:49.025Z,-3.52
2019-02-06T07:21:19.912Z,-3.51
2019-02-06T07:23:50.998Z,-3.44
2019-02-06T07:26:21.811Z,-3.44
2019-02-06T07:28:52.861Z,-3.42
2019-02-06T07:31:23.765Z,-3.49
2019-02-06T07:33:54.859Z,-3.49
2019-02-06T07:36:25.760Z,-3.41
2019-02-06T07:38:57.040Z,-3.41
2019-02-06T07:41:28.229Z,-3.31
2019-02-06T07:43:59.150Z,-3.31
2019-02-06T07:46:30.046Z,-3.31
2019-02-06T07:49:01.012Z,-3.23
2019-02-06T07:51:31.787Z,-3.23
2019-02-06T07:54:02.787Z,-3.09
2019-02-06T07:56:33.562Z,-3.14
2019-02-06T07:59:04.742Z,-3.14
2019-02-06T08:01:35.657Z,-3.00
2019-02-06T08:04:06.810Z,-2.97
2019-02-06T08:06:37.632Z,-3.00
2019-02-06T08:09:10.261Z,-2.89
2019-02-06T08:11:41.137Z,-2.84
2019-02-06T08:14:12.235Z,-2.81
2019-02-06T08:16:43.032Z,-2.80
2019-02-06T08:19:14.047Z,-2.80
2019-02-06T08:21:45.297Z,-2.81
2019-02-06T08:24:16.272Z,-2.77
2019-02-06T08:26:47.174Z,-2.72
2019-02-06T08:29:18.275Z,-2.68
2019-02-06T08:31:49.074Z,-2.71
2019-02-06T08:34:20.059Z,-2.64
2019-02-06T08:36:50.954Z,-2.56
2019-02-06T08:39:22.684Z,-2.51
2019-02-06T08:41:53.625Z,-2.39
2019-02-06T08:44:24.447Z,-2.30
2019-02-06T08:46:55.521Z,-2.20
2019-02-06T08:49:26.412Z,-2.13
2019-02-06T08:51:57.180Z,-2.06
2019-02-06T08:54:28.336Z,-1.98
2019-02-06T08:56:59.285Z,-1.90
2019-02-06T08:59:30.265Z,-1.82
2019-02-06T09:02:01.561Z,-1.79
2019-02-06T09:04:32.447Z,-1.66
2019-02-06T09:07:03.325Z,-1.56
2019-02-06T09:09:34.405Z,-1.47
2019-02-06T09:12:05.302Z,-1.34
2019-02-06T09:14:36.710Z,-1.22
2019-02-06T09:17:07.708Z,-1.10
2019-02-06T09:19:38.696Z,-1.01
2019-02-06T09:22:09.589Z,-1.07
2019-02-06T09:24:40.648Z,-1.01
2019-02-06T09:27:11.651Z,-0.84
2019-02-06T09:29:42.758Z,-0.71
2019-02-06T09:32:13.633Z,-0.77
2019-02-06T09:34:44.574Z,-0.75
2019-02-06T09:37:15.421Z,-0.61
2019-02-06T09:39:46.326Z,-0.50
2019-02-06T09:42:17.202Z,-0.39
2019-02-06T09:44:48.193Z,-0.33
2019-02-06T09:47:19.157Z,-0.26
2019-02-06T09:49:50.090Z,-0.26
2019-02-06T09:52:20.936Z,-0.24
2019-02-06T09:54:51.827Z,-0.21
2019-02-06T09:57:23.030Z,-0.06
2019-02-06T09:59:54.106Z,0.04
2019-02-06T10:02:26.015Z,0.15
2019-02-06T10:04:57.017Z,0.20
2019-02-06T10:07:27.893Z,0.23
2019-02-06T10:09:59.290Z,0.29
2019-02-06T10:12:30.105Z,0.43
2019-02-06T10:15:01.085Z,0.45
2019-02-06T10:17:31.957Z,0.55
2019-02-06T10:20:02.951Z,0.65
2019-02-06T10:22:33.749Z,0.70
2019-02-06T10:25:05.420Z,0.79
2019-02-06T10:27:36.419Z,0.84
2019-02-06T10:30:09.174Z,0.92
2019-02-06T10:32:39.965Z,0.89
2019-02-06T10:35:11.114Z,0.88
2019-02-06T10:37:42.023Z,1.19
2019-02-06T10:40:13.144Z,1.17
2019-02-06T10:42:44.012Z,1.20
2019-02-06T10:45:15.495Z,1.19
2019-02-06T10:47:47.621Z,1.16
2019-02-06T10:50:21.271Z,1.20
2019-02-06T10:52:52.180Z,1.30
2019-02-06T10:55:23.365Z,1.45
2019-02-06T10:57:54.261Z,1.63
2019-02-06T11:00:31.500Z,1.67
2019-02-06T11:03:02.384Z,1.74
2019-02-06T11:05:33.277Z,1.75
2019-02-06T11:08:04.344Z,1.82
2019-02-06T11:10:35.599Z,1.95
2019-02-06T11:13:07.032Z,2.06
2019-02-06T11:15:38.364Z,2.16
2019-02-06T11:18:09.435Z,2.18
2019-02-06T11:20:40.747Z,2.26
2019-02-06T11:23:11.729Z,2.29
2019-02-06T11:25:42.834Z,2.43
2019-02-06T11:28:14.209Z,2.55
2019-02-06T11:30:45.402Z,2.63
2019-02-06T11:33:16.312Z,2.63
2019-02-06T11:35:47.298Z,2.67
2019-02-06T11:38:18.285Z,2.71
2019-02-06T11:40:49.297Z,2.63
2019-02-06T11:43:20.360Z,2.74
2019-02-06T11:45:51.469Z,2.82
2019-02-06T11:48:22.546Z,2.89
2019-02-06T11:50:53.625Z,3.01
2019-02-06T11:53:26.594Z,3.02
2019-02-06T11:55:58.229Z,3.09
2019-02-06T11:58:29.351Z,3.11
2019-02-06T12:01:22.638Z,3.18
2019-02-06T12:03:54.629Z,3.20
2019-02-06T12:06:26.310Z,3.30
2019-02-06T12:08:57.213Z,3.21
2019-02-06T12:11:28.196Z,3.38
2019-02-06T12:13:59.084Z,3.46
2019-02-06T12:16:30.264Z,3.53
2019-02-06T12:19:01.266Z,3.61
2019-02-06T12:21:32.371Z,3.64
2019-02-06T12:24:03.348Z,3.66
2019-02-06T12:26:34.395Z,3.75
2019-02-06T12:29:05.332Z,3.80
2019-02-06T12:31:36.624Z,3.80
2019-02-06T12:34:07.615Z,3.93
2019-02-06T12:36:38.608Z,3.93
2019-02-06T12:39:11.026Z,4.01
2019-02-06T12:41:42.417Z,4.13
2019-02-06T12:44:13.303Z,4.14
2019-02-06T12:46:44.620Z,4.17
2019-02-06T12:49:15.487Z,4.14
2019-02-06T12:51:46.481Z,4.14
2019-02-06T12:54:17.363Z,4.21
2019-02-06T12:56:48.277Z,4.34
2019-02-06T12:59:19.150Z,4.24
2019-02-06T13:01:50.042Z,4.25
2019-02-06T13:04:20.905Z,4.35
2019-02-06T13:06:51.883Z,4.35
2019-02-06T13:09:22.701Z,4.35
2019-02-06T13:11:53.700Z,4.45
2019-02-06T13:14:24.865Z,4.41
2019-02-06T13:16:55.968Z,4.41
2019-02-06T13:19:26.848Z,4.40
2019-02-06T13:21:58.203Z,4.49
2019-02-06T13:24:29.077Z,4.50
2019-02-06T13:27:00.132Z,4.54
2019-02-06T13:29:31.018Z,4.62
2019-02-06T13:32:02.110Z,4.69
2019-02-06T13:34:32.911Z,4.69
2019-02-06T13:37:04.179Z,4.76
2019-02-06T13:39:34.991Z,4.89
2019-02-06T13:42:06.498Z,4.95
2019-02-06T13:44:37.264Z,4.91
2019-02-06T13:47:08.252Z,5.11
2019-02-06T13:49:39.040Z,5.04
2019-02-06T13:52:10.149Z,5.03
2019-02-06T13:54:41.240Z,5.03
2019-02-06T13:57:12.413Z,5.04
2019-02-06T13:59:43.197Z,5.05
2019-02-06T14:02:14.212Z,5.08
2019-02-06T14:04:45.276Z,5.16
2019-02-06T14:07:16.319Z,5.16
2019-02-06T14:09:47.176Z,5.19
2019-02-06T14:12:18.168Z,5.11
2019-02-06T14:14:48.959Z,5.14
2019-02-06T14:17:19.840Z,5.12
2019-02-06T14:19:50.604Z,5.07
2019-02-06T14:22:21.497Z,5.12
2019-02-06T14:25:11.340Z,4.95
2019-02-06T14:27:54.434Z,4.82
2019-02-06T14:30:48.241Z,4.72
2019-02-06T14:34:15.280Z,4.66
2019-02-06T14:37:21.162Z,4.79
2019-02-06T14:40:52.188Z,4.90
2019-02-06T14:44:15.760Z,4.91
2019-02-06T14:47:29.668Z,4.86
2019-02-06T14:50:50.313Z,4.97
2019-02-06T14:53:50.027Z,4.95
2019-02-06T14:57:05.251Z,4.99
2019-02-06T15:00:05.016Z,5.15
2019-02-06T15:03:15.887Z,5.15
2019-02-06T15:06:40.180Z,5.16
2019-02-06T15:09:47.367Z,5.10
2019-02-06T15:12:46.737Z,4.92
2019-02-06T15:15:30.592Z,4.65
2019-02-06T15:18:36.447Z,4.56
2019-02-06T15:21:53.809Z,4.37
2019-02-06T15:24:54.503Z,4.27
2019-02-06T15:28:08.174Z,4.07
2019-02-06T15:31:38.200Z,3.97
2019-02-06T15:34:36.891Z,3.76
2019-02-06T15:37:41.592Z,3.67
2019-02-06T15:41:02.942Z,3.53
2019-02-06T15:44:00.041Z,3.42
2019-02-06T15:47:03.397Z,3.27
2019-02-06T15:50:26.705Z,3.23
2019-02-06T15:53:39.377Z,3.17
2019-02-06T15:56:53.184Z,3.08
2019-02-06T16:00:20.578Z,3.04
2019-02-06T16:03:52.857Z,2.99
2019-02-06T16:06:53.625Z,2.90
2019-02-06T16:10:10.338Z,2.85
2019-02-06T16:13:22.510Z,2.81
2019-02-06T16:16:21.323Z,2.73
2019-02-06T16:19:30.127Z,2.72
2019-02-06T16:22:20.319Z,2.59
2019-02-06T16:25:12.555Z,2.49
2019-02-06T16:28:11.377Z,2.52
2019-02-06T16:31:30.948Z,2.49
2019-02-06T16:34:42.315Z,2.46
2019-02-06T16:37:44.087Z,2.38
2019-02-06T16:40:39.153Z,2.29
2019-02-06T16:43:37.050Z,2.18
2019-02-06T16:46:47.208Z,2.11
2019-02-06T16:49:44.260Z,2.11
2019-02-06T16:53:23.395Z,2.13
2019-02-06T16:56:49.529Z,2.11
2019-02-06T17:00:06.346Z,2.06
2019-02-06T17:03:21.234Z,1.99
2019-02-06T17:06:15.764Z,1.92
2019-02-06T17:09:40.815Z,1.87
2019-02-06T17:13:07.543Z,1.84
2019-02-06T17:16:49.486Z,1.76
2019-02-06T17:20:09.310Z,1.71
2019-02-06T17:23:17.046Z,1.69
2019-02-06T17:26:34.244Z,1.67
2019-02-06T17:29:35.315Z,1.65
2019-02-06T17:32:35.198Z,1.58
2019-02-06T17:35:20.320Z,1.40
2019-02-06T17:38:24.421Z,1.31
2019-02-06T17:41:25.979Z,1.28
2019-02-06T17:44:23.334Z,1.20
2019-02-06T17:47:33.812Z,1.20
2019-02-06T17:51:02.082Z,1.27
2019-02-06T17:54:16.337Z,1.26
2019-02-06T17:56:47.511Z,1.31
2019-02-06T17:59:18.521Z,1.31
2019-02-06T18:01:54.733Z,1.29
2019-02-06T18:04:38.535Z,1.29
2019-02-06T18:07:09.712Z,1.29
2019-02-06T18:09:41.753Z,1.19
2019-02-06T18:12:12.812Z,1.12
2019-02-06T18:14:43.724Z,1.09
2019-02-06T18:17:14.827Z,1.02
2019-02-06T18:19:45.500Z,0.86
2019-02-06T18:22:17.210Z,0.81
2019-02-06T18:24:48.095Z,0.70
2019-02-06T18:27:20.120Z,0.77
2019-02-06T18:29:50.984Z,0.80
2019-02-06T18:32:21.991Z,0.77
2019-02-06T18:34:52.755Z,0.60
2019-02-06T18:37:23.743Z,0.47
2019-02-06T18:39:54.752Z,0.34
2019-02-06T18:42:25.746Z,0.40
2019-02-06T18:44:56.511Z,0.43
2019-02-06T18:47:27.774Z,0.33
2019-02-06T18:49:58.687Z,0.31
2019-02-06T18:52:32.347Z,0.21
2019-02-06T18:55:03.353Z,0.20
2019-02-06T18:57:34.339Z,0.26
2019-02-06T19:00:07.821Z,0.19
2019-02-06T19:02:38.983Z,0.14
2019-02-06T19:05:11.230Z,0.19
2019-02-06T19:07:42.305Z,0.17
2019-02-06T19:10:14.503Z,0.14
2019-02-06T19:12:47.969Z,0.12
2019-02-06T19:15:18.964Z,0.10
2019-02-06T19:17:50.639Z,0.10
2019-02-06T19:20:21.518Z,0.09
2019-02-06T19:22:52.615Z,0.10
2019-02-06T19:25:24.015Z,0.10
2019-02-06T19:27:56.291Z,0.10
2019-02-06T19:30:30.718Z,0.07
2019-02-06T19:33:02.650Z,0.01
2019-02-06T19:35:33.527Z,-0.03
2019-02-06T19:38:04.621Z,-0.06
2019-02-06T19:40:35.692Z,-0.13
2019-02-06T19:43:07.778Z,-0.10
2019-02-06T19:45:39.335Z,-0.17
2019-02-06T19:48:16.302Z,-0.23
2019-02-06T19:50:43.238Z,-0.26
2019-02-06T19:53:14.258Z,-0.30
2019-02-06T19:55:45.232Z,-0.29
2019-02-06T19:58:16.412Z,-0.38
2019-02-06T20:00:47.606Z,-0.44
2019-02-06T20:03:18.723Z,-0.44
2019-02-06T20:05:49.600Z,-0.50
2019-02-06T20:08:21.001Z,-0.50
2019-02-06T20:10:51.870Z,-0.56
2019-02-06T20:13:22.869Z,-0.56
2019-02-06T20:15:54.175Z,-0.59
2019-02-06T20:18:25.073Z,-0.56
2019-02-06T20:20:55.930Z,-0.52
2019-02-06T20:23:26.984Z,-0.56
2019-02-06T20:25:58.135Z,-0.64
2019-02-06T20:28:29.309Z,-0.60
2019-02-06T20:31:00.791Z,-0.71
2019-02-06T20:33:31.917Z,-0.80
2019-02-06T20:36:02.801Z,-0.79
2019-02-06T20:38:34.044Z,-0.73
2019-02-06T20:41:05.095Z,-0.71
2019-02-06T20:43:36.081Z,-0.72
2019-02-06T20:46:07.364Z,-0.70
2019-02-06T20:48:38.676Z,-0.67
2019-02-06T20:51:27.481Z,-0.71
2019-02-06T20:53:58.486Z,-0.77
2019-02-06T20:56:29.813Z,-0.90
2019-02-06T20:59:00.872Z,-0.92
2019-02-06T21:01:31.760Z,-0.97
2019-02-06T21:04:02.812Z,-0.99
2019-02-06T21:06:33.638Z,-0.94
2019-02-06T21:09:05.408Z,-0.91
2019-02-06T21:11:37.953Z,-0.92
2019-02-06T21:14:09.335Z,-0.94
2019-02-06T21:16:40.257Z,-1.00
2019-02-06T21:19:11.197Z,-0.96
2019-02-06T21:21:42.009Z,-0.93
2019-02-06T21:24:13.209Z,-0.94
2019-02-06T21:26:44.576Z,-0.99
2019-02-06T21:29:16.595Z,-1.03
2019-02-06T21:31:47.518Z,-1.00
2019-02-06T21:34:18.558Z,-0.94
2019-02-06T21:36:49.712Z,-0.98
2019-02-06T21:39:20.772Z,-0.89
2019-02-06T21:41:51.492Z,-0.89
2019-02-06T21:44:22.373Z,-0.84
2019-02-06T21:46:53.245Z,-0.84
2019-02-06T21:49:24.229Z,-0.89
2019-02-06T21:51:55.037Z,-0.89
2019-02-06T21:54:25.937Z,-0.95
2019-02-06T21:56:56.914Z,-1.09
2019-02-06T21:59:27.942Z,-1.08
2019-02-06T22:01:58.902Z,-1.07
2019-02-06T22:04:31.498Z,-1.19
2019-02-06T22:07:02.287Z,-1.17
2019-02-06T22:09:33.232Z,-1.30
2019-02-06T22:12:04.079Z,-1.36
2019-02-06T22:14:35.372Z,-1.29
2019-02-06T22:17:06.661Z,-1.30
2019-02-06T22:19:37.668Z,-1.31
2019-02-06T22:22:08.454Z,-1.35
2019-02-06T22:24:39.424Z,-1.34
2019-02-06T22:27:10.212Z,-1.31
2019-02-06T22:29:41.495Z,-1.30
2019-02-06T22:32:12.304Z,-1.39
2019-02-06T22:34:43.283Z,-1.33
2019-02-06T22:37:14.069Z,-1.28
2019-02-06T22:39:45.148Z,-1.32
2019-02-06T22:42:16.266Z,-1.34
2019-02-06T22:44:47.369Z,-1.30
2019-02-06T22:47:18.225Z,-1.32
2019-02-06T22:49:49.116Z,-1.36
2019-02-06T22:52:22.862Z,-1.38
2019-02-06T22:54:52.965Z,-1.40
2019-02-06T22:57:23.825Z,-1.39
2019-02-06T22:59:54.769Z,-1.43
2019-02-06T23:02:25.719Z,-1.45
2019-02-06T23:04:56.620Z,-1.42
2019-02-06T23:07:27.681Z,-1.40
2019-02-06T23:09:58.785Z,-1.42
2019-02-06T23:12:29.589Z,-1.45
2019-02-06T23:15:00.570Z,-1.47
2019-02-06T23:17:31.539Z,-1.56
2019-02-06T23:20:02.729Z,-1.62
2019-02-06T23:22:34.060Z,-1.55
2019-02-06T23:25:06.119Z,-1.55
2019-02-06T23:27:37.033Z,-1.64
2019-02-06T23:30:08.542Z,-1.66
2019-02-06T23:32:39.548Z,-1.69
2019-02-06T23:35:10.618Z,-1.65
2019-02-06T23:37:41.605Z,-1.60
2019-02-06T23:40:12.723Z,-1.66
2019-02-06T23:42:43.855Z,-1.74
2019-02-06T23:45:15.264Z,-1.69
2019-02-06T23:47:46.508Z,-1.67
2019-02-06T23:50:17.416Z,-1.62
2019-02-06T23:52:48.274Z,-1.69
2019-02-06T23:55:19.155Z,-1.68
2019-02-06T23:57:50.060Z,-1.63
